createdAt,value
2018-08-10T00:00:50.955Z,56.11
2018-08-10T00:01:50.947Z,55.73
2018-08-10T00:02:50.943Z,55.63
2018-08-10T00:03:50.931Z,55.73
2018-08-10T00:04:50.928Z,55.63
2018-08-10T00:05:50.925Z,55.63
2018-08-10T00:06:50.922Z,55.63
2018-08-10T00:07:50.912Z,55.63
2018-08-10T00:08:50.906Z,55.63
2018-08-10T00:09:50.898Z,55.63
2018-08-10T00:10:50.895Z,55.63
2018-08-10T00:11:50.891Z,55.73
2018-08-10T00:12:50.883Z,55.63
2018-08-10T00:13:50.876Z,55.63
2018-08-10T00:14:50.870Z,55.63
2018-08-10T00:15:50.911Z,55.63
2018-08-10T00:16:50.867Z,55.63
2018-08-10T00:17:50.856Z,55.63
2018-08-10T00:18:50.851Z,55.82
2018-08-10T00:19:50.845Z,55.82
2018-08-10T00:20:50.840Z,55.82
2018-08-10T00:21:50.832Z,55.82
2018-08-10T00:22:50.827Z,55.53
2018-08-10T00:23:50.828Z,55.73
2018-08-10T00:24:50.816Z,55.63
2018-08-10T00:25:50.813Z,55.53
2018-08-10T00:26:50.809Z,55.53
2018-08-10T00:27:50.802Z,56.09
2018-08-10T00:28:50.796Z,55.99
2018-08-10T00:29:50.790Z,55.89
2018-08-10T00:30:50.786Z,55.89
2018-08-10T00:31:50.779Z,55.79
2018-08-10T00:32:50.781Z,55.60
2018-08-10T00:33:50.768Z,55.82
2018-08-10T00:34:50.763Z,55.63
2018-08-10T00:35:50.763Z,55.63
2018-08-10T00:36:50.754Z,55.63
2018-08-10T00:37:50.746Z,56.02
2018-08-10T00:38:50.740Z,56.02
2018-08-10T00:39:50.734Z,55.43
2018-08-10T00:40:50.728Z,55.63
2018-08-10T00:41:50.730Z,55.43
2018-08-10T00:42:50.718Z,55.73
2018-08-10T00:43:50.716Z,55.63
2018-08-10T00:44:50.707Z,55.34
2018-08-10T00:45:50.702Z,55.56
2018-08-10T00:46:50.698Z,55.17
2018-08-10T00:47:50.691Z,55.46
2018-08-10T00:48:50.685Z,55.07
2018-08-10T00:49:50.684Z,54.88
2018-08-10T00:50:50.681Z,54.88
2018-08-10T00:51:50.675Z,54.98
2018-08-10T00:52:50.668Z,55.17
2018-08-10T00:53:50.656Z,54.98
2018-08-10T00:54:50.654Z,54.85
2018-08-10T00:55:50.650Z,55.05
2018-08-10T00:56:50.643Z,55.05
2018-08-10T00:57:50.637Z,55.05
2018-08-10T00:58:50.632Z,54.95
2018-08-10T00:59:50.643Z,55.05
2018-08-10T01:00:50.622Z,54.75
2018-08-10T01:01:50.616Z,54.93
2018-08-10T01:02:50.612Z,54.95
2018-08-10T01:03:50.611Z,55.02
2018-08-10T01:04:50.599Z,54.83
2018-08-10T01:05:50.596Z,54.93
2018-08-10T01:06:50.587Z,54.93
2018-08-10T01:07:50.587Z,54.95
2018-08-10T01:08:50.577Z,54.93
2018-08-10T01:09:50.574Z,55.05
2018-08-10T01:10:50.564Z,54.66
2018-08-10T01:11:50.565Z,54.37
2018-08-10T01:12:50.561Z,54.17
2018-08-10T01:13:50.549Z,54.08
2018-08-10T01:14:50.544Z,54.37
2018-08-10T01:15:50.538Z,54.17
2018-08-10T01:16:50.547Z,53.89
2018-08-10T01:17:50.526Z,54.17
2018-08-10T01:18:50.522Z,53.99
2018-08-10T01:19:50.516Z,53.96
2018-08-10T01:20:50.518Z,53.86
2018-08-10T01:21:50.507Z,54.15
2018-08-10T01:22:50.499Z,54.15
2018-08-10T01:23:50.494Z,54.15
2018-08-10T01:24:50.491Z,54.15
2018-08-10T01:25:50.549Z,54.05
2018-08-10T01:26:50.482Z,54.05
2018-08-10T01:27:50.471Z,54.15
2018-08-10T01:28:50.554Z,54.15
2018-08-10T01:29:50.464Z,54.15
2018-08-10T01:30:50.459Z,54.25
2018-08-10T01:31:50.486Z,54.05
2018-08-10T01:32:50.446Z,54.25
2018-08-10T01:33:50.494Z,53.77
2018-08-10T01:34:50.435Z,53.77
2018-08-10T01:35:50.429Z,53.57
2018-08-10T01:36:50.422Z,53.86
2018-08-10T01:37:50.409Z,53.96
2018-08-10T01:38:50.411Z,53.67
2018-08-10T01:39:50.407Z,53.67
2018-08-10T01:40:50.401Z,53.96
2018-08-10T01:41:50.399Z,53.77
2018-08-10T01:42:50.394Z,53.67
2018-08-10T01:43:50.388Z,53.67
2018-08-10T01:44:50.380Z,53.86
2018-08-10T01:45:50.368Z,53.96
2018-08-10T01:46:50.376Z,53.67
2018-08-10T01:47:50.360Z,53.77
2018-08-10T01:48:50.363Z,53.57
2018-08-10T01:49:50.356Z,53.67
2018-08-10T01:50:50.346Z,53.57
2018-08-10T01:51:50.341Z,53.77
2018-08-10T01:52:50.336Z,53.77
2018-08-10T01:53:50.328Z,53.38
2018-08-10T01:54:50.323Z,53.47
2018-08-10T01:55:50.316Z,53.47
2018-08-10T01:56:50.314Z,53.19
2018-08-10T01:57:50.307Z,53.11
2018-08-10T01:58:50.301Z,53.02
2018-08-10T01:59:50.299Z,53.02
2018-08-10T02:00:50.291Z,53.11
2018-08-10T02:01:50.284Z,52.92
2018-08-10T02:02:50.281Z,52.82
2018-08-10T02:03:50.272Z,53.02
2018-08-10T02:04:50.266Z,52.92
2018-08-10T02:05:50.264Z,53.21
2018-08-10T02:06:50.261Z,53.31
2018-08-10T02:07:50.250Z,52.92
2018-08-10T02:08:50.247Z,53.02
2018-08-10T02:09:50.239Z,52.89
2018-08-10T02:10:50.235Z,52.99
2018-08-10T02:11:50.228Z,53.38
2018-08-10T02:12:50.224Z,53.19
2018-08-10T02:13:50.219Z,53.38
2018-08-10T02:14:50.212Z,53.47
2018-08-10T02:15:50.213Z,53.47
2018-08-10T02:16:50.205Z,53.47
2018-08-10T02:17:50.195Z,53.47
2018-08-10T02:18:50.193Z,53.19
2018-08-10T02:19:50.187Z,53.28
2018-08-10T02:20:50.178Z,52.80
2018-08-10T02:21:50.171Z,52.80
2018-08-10T02:22:50.171Z,53.19
2018-08-10T02:23:50.167Z,52.99
2018-08-10T02:24:50.191Z,53.19
2018-08-10T02:25:50.151Z,53.19
2018-08-10T02:26:50.146Z,53.19
2018-08-10T02:27:50.139Z,53.38
2018-08-10T02:28:50.134Z,53.02
2018-08-10T02:29:50.129Z,52.92
2018-08-10T02:30:50.124Z,52.63
2018-08-10T02:31:50.119Z,52.73
2018-08-10T02:32:50.112Z,52.53
2018-08-10T02:33:50.110Z,52.53
2018-08-10T02:34:50.101Z,52.73
2018-08-10T02:35:50.097Z,52.66
2018-08-10T02:36:50.094Z,52.82
2018-08-10T02:37:50.085Z,52.82
2018-08-10T02:38:50.086Z,52.75
2018-08-10T02:39:50.075Z,52.85
2018-08-10T02:40:50.074Z,52.85
2018-08-10T02:41:50.063Z,53.04
2018-08-10T02:42:50.064Z,52.95
2018-08-10T02:43:50.055Z,52.85
2018-08-10T02:44:50.082Z,52.85
2018-08-10T02:45:50.042Z,52.85
2018-08-10T02:46:50.064Z,52.95
2018-08-10T02:47:50.036Z,52.66
2018-08-10T02:48:50.027Z,52.75
2018-08-10T02:49:50.021Z,52.73
2018-08-10T02:50:50.016Z,52.92
2018-08-10T02:51:50.011Z,53.02
2018-08-10T02:52:50.006Z,52.53
2018-08-10T02:53:50.010Z,52.73
2018-08-10T02:54:49.999Z,52.73
2018-08-10T02:55:49.989Z,52.92
2018-08-10T02:56:49.984Z,52.82
2018-08-10T02:57:49.978Z,52.82
2018-08-10T02:58:49.975Z,52.73
2018-08-10T02:59:49.967Z,52.85
2018-08-10T03:00:49.960Z,52.85
2018-08-10T03:01:49.957Z,52.66
2018-08-10T03:02:49.949Z,52.95
2018-08-10T03:03:49.947Z,52.85
2018-08-10T03:04:49.946Z,52.66
2018-08-10T03:05:49.943Z,52.46
2018-08-10T03:06:49.931Z,52.17
2018-08-10T03:07:49.926Z,52.17
2018-08-10T03:08:49.925Z,52.46
2018-08-10T03:09:49.917Z,52.46
2018-08-10T03:10:49.909Z,52.46
2018-08-10T03:11:49.905Z,52.46
2018-08-10T03:12:49.899Z,52.27
2018-08-10T03:13:49.893Z,52.66
2018-08-10T03:14:49.901Z,52.56
2018-08-10T03:15:49.888Z,52.46
2018-08-10T03:16:49.877Z,52.56
2018-08-10T03:17:49.867Z,52.46
2018-08-10T03:18:49.868Z,52.17
2018-08-10T03:19:49.883Z,52.75
2018-08-10T03:20:49.862Z,52.56
2018-08-10T03:21:49.853Z,52.27
2018-08-10T03:22:49.848Z,52.24
2018-08-10T03:23:49.847Z,52.34
2018-08-10T03:24:49.841Z,52.46
2018-08-10T03:25:49.831Z,52.24
2018-08-10T03:26:49.827Z,52.44
2018-08-10T03:27:49.828Z,52.44
2018-08-10T03:28:49.837Z,52.63
2018-08-10T03:29:49.809Z,52.63
2018-08-10T03:30:49.806Z,52.82
2018-08-10T03:31:49.798Z,52.82
2018-08-10T03:32:49.801Z,52.73
2018-08-10T03:33:49.789Z,52.73
2018-08-10T03:34:49.785Z,52.53
2018-08-10T03:35:49.783Z,52.53
2018-08-10T03:36:49.784Z,52.73
2018-08-10T03:37:49.772Z,52.85
2018-08-10T03:38:49.808Z,53.04
2018-08-10T03:39:49.751Z,52.95
2018-08-10T03:40:49.751Z,52.95
2018-08-10T03:41:49.748Z,52.85
2018-08-10T03:42:49.739Z,52.85
2018-08-10T03:43:52.577Z,52.85
2018-08-10T03:44:49.732Z,52.75
2018-08-10T03:45:49.725Z,53.43
2018-08-10T03:46:49.723Z,53.23
2018-08-10T03:47:49.718Z,53.23
2018-08-10T03:48:49.710Z,53.23
2018-08-10T03:49:49.763Z,53.23
2018-08-10T03:50:49.697Z,52.66
2018-08-10T03:51:49.693Z,53.04
2018-08-10T03:52:49.687Z,52.85
2018-08-10T03:53:49.690Z,52.85
2018-08-10T03:54:49.677Z,53.07
2018-08-10T03:55:49.671Z,52.85
2018-08-10T03:56:49.663Z,52.75
2018-08-10T03:57:49.662Z,52.17
2018-08-10T03:58:49.653Z,52.58
2018-08-10T03:59:49.651Z,52.68
2018-08-10T04:00:49.639Z,52.39
2018-08-10T04:01:49.638Z,52.49
2018-08-10T04:02:49.642Z,52.29
2018-08-10T04:03:49.623Z,52.39
2018-08-10T04:04:49.616Z,52.58
2018-08-10T04:05:49.610Z,52.58
2018-08-10T04:06:49.608Z,52.78
2018-08-10T04:07:49.598Z,52.49
2018-08-10T04:08:49.592Z,52.20
2018-08-10T04:09:49.595Z,52.39
2018-08-10T04:10:49.582Z,52.39
2018-08-10T04:11:49.574Z,52.20
2018-08-10T04:12:49.569Z,52.29
2018-08-10T04:13:49.563Z,52.20
2018-08-10T04:14:49.554Z,52.39
2018-08-10T04:15:49.549Z,52.39
2018-08-10T04:16:49.541Z,52.39
2018-08-10T04:17:49.544Z,52.39
2018-08-10T04:18:49.531Z,52.39
2018-08-10T04:19:49.527Z,52.39
2018-08-10T04:20:49.520Z,52.39
2018-08-10T04:21:49.511Z,52.39
2018-08-10T04:22:49.506Z,52.39
2018-08-10T04:23:49.505Z,52.49
2018-08-10T04:24:49.494Z,52.29
2018-08-10T04:25:49.489Z,52.51
2018-08-10T04:26:49.485Z,52.39
2018-08-10T04:27:49.477Z,52.49
2018-08-10T04:28:49.467Z,52.32
2018-08-10T04:29:49.465Z,52.29
2018-08-10T04:30:49.457Z,52.29
2018-08-10T04:31:49.453Z,52.29
2018-08-10T04:32:49.450Z,52.20
2018-08-10T04:33:49.440Z,52.29
2018-08-10T04:34:49.434Z,52.29
2018-08-10T04:35:49.428Z,52.32
2018-08-10T04:36:49.419Z,52.32
2018-08-10T04:37:49.415Z,52.32
2018-08-10T04:38:49.409Z,52.32
2018-08-10T04:39:49.404Z,52.32
2018-08-10T04:40:49.398Z,52.29
2018-08-10T04:41:49.395Z,52.32
2018-08-10T04:42:49.384Z,52.39
2018-08-10T04:43:49.380Z,52.42
2018-08-10T04:44:49.373Z,52.61
2018-08-10T04:45:49.365Z,52.61
2018-08-10T04:46:49.358Z,52.61
2018-08-10T04:47:49.352Z,52.51
2018-08-10T04:48:49.356Z,52.51
2018-08-10T04:49:49.344Z,52.39
2018-08-10T04:50:49.336Z,52.29
2018-08-10T04:51:49.332Z,52.32
2018-08-10T04:52:49.324Z,52.20
2018-08-10T04:53:49.319Z,52.42
2018-08-10T04:54:49.310Z,52.51
2018-08-10T04:55:49.309Z,52.22
2018-08-10T04:56:49.305Z,52.68
2018-08-10T04:57:49.296Z,52.80
2018-08-10T04:58:49.289Z,52.78
2018-08-10T04:59:49.282Z,52.51
2018-08-10T05:00:49.275Z,52.51
2018-08-10T05:01:49.268Z,52.51
2018-08-10T05:02:49.261Z,52.51
2018-08-10T05:03:49.343Z,52.29
2018-08-10T05:04:49.259Z,52.22
2018-08-10T05:05:49.245Z,52.61
2018-08-10T05:06:49.238Z,52.71
2018-08-10T05:07:49.234Z,52.78
2018-08-10T05:08:49.226Z,53.00
2018-08-10T05:09:49.252Z,52.90
2018-08-10T05:10:49.215Z,52.71
2018-08-10T05:11:49.213Z,52.80
2018-08-10T05:12:49.201Z,52.90
2018-08-10T05:13:49.199Z,52.80
2018-08-10T05:14:49.190Z,53.00
2018-08-10T05:15:49.251Z,53.00
2018-08-10T05:16:49.179Z,52.90
2018-08-10T05:17:49.173Z,52.90
2018-08-10T05:18:49.173Z,52.90
2018-08-10T05:19:49.160Z,52.61
2018-08-10T05:20:49.172Z,52.80
2018-08-10T05:21:49.146Z,52.71
2018-08-10T05:22:49.148Z,52.61
2018-08-10T05:23:49.152Z,52.61
2018-08-10T05:24:49.133Z,52.71
2018-08-10T05:25:49.152Z,52.90
2018-08-10T05:26:49.116Z,53.00
2018-08-10T05:27:49.120Z,53.39
2018-08-10T05:28:49.104Z,53.39
2018-08-10T05:29:49.104Z,53.39
2018-08-10T05:30:49.093Z,53.39
2018-08-10T05:31:49.088Z,53.29
2018-08-10T05:32:49.080Z,53.09
2018-08-10T05:33:49.075Z,53.19
2018-08-10T05:34:49.125Z,53.39
2018-08-10T05:35:49.063Z,53.29
2018-08-10T05:36:49.057Z,53.19
2018-08-10T05:37:49.057Z,53.29
2018-08-10T05:38:49.042Z,53.39
2018-08-10T05:39:49.040Z,53.29
2018-08-10T05:40:49.033Z,53.19
2018-08-10T05:41:49.025Z,53.19
2018-08-10T05:42:49.020Z,53.39
2018-08-10T05:43:49.019Z,53.19
2018-08-10T05:44:49.010Z,53.49
2018-08-10T05:45:49.002Z,53.29
2018-08-10T05:46:49.047Z,53.29
2018-08-10T05:47:48.991Z,53.00
2018-08-10T05:48:48.984Z,53.29
2018-08-10T05:49:48.976Z,53.31
2018-08-10T05:50:48.991Z,53.00
2018-08-10T05:51:48.971Z,52.93
2018-08-10T05:52:48.959Z,53.12
2018-08-10T05:53:48.953Z,53.12
2018-08-10T05:54:48.947Z,53.12
2018-08-10T05:55:48.941Z,53.41
2018-08-10T05:56:48.936Z,53.31
2018-08-10T05:57:48.930Z,53.22
2018-08-10T05:58:48.923Z,53.22
2018-08-10T05:59:48.928Z,53.39
2018-08-10T06:00:49.027Z,53.31
2018-08-10T06:01:48.906Z,53.41
2018-08-10T06:02:48.901Z,53.31
2018-08-10T06:03:48.965Z,53.22
2018-08-10T06:04:48.888Z,53.22
2018-08-10T06:05:48.896Z,53.41
2018-08-10T06:06:48.874Z,53.31
2018-08-10T06:07:48.876Z,53.41
2018-08-10T06:08:48.865Z,53.31
2018-08-10T06:09:48.880Z,53.22
2018-08-10T06:10:48.856Z,53.22
2018-08-10T06:11:48.846Z,53.41
2018-08-10T06:12:48.860Z,53.31
2018-08-10T06:13:48.834Z,53.22
2018-08-10T06:14:48.827Z,53.41
2018-08-10T06:15:48.825Z,53.51
2018-08-10T06:16:48.825Z,53.41
2018-08-10T06:17:48.816Z,53.41
2018-08-10T06:18:48.804Z,53.41
2018-08-10T06:19:48.833Z,53.31
2018-08-10T06:20:48.793Z,53.02
2018-08-10T06:21:48.787Z,52.64
2018-08-10T06:22:48.833Z,52.83
2018-08-10T06:23:48.781Z,52.83
2018-08-10T06:24:48.769Z,52.76
2018-08-10T06:25:48.764Z,52.76
2018-08-10T06:26:48.759Z,52.95
2018-08-10T06:27:48.817Z,52.64
2018-08-10T06:28:48.752Z,52.95
2018-08-10T06:29:48.741Z,52.95
2018-08-10T06:30:48.734Z,52.95
2018-08-10T06:31:48.729Z,52.76
2018-08-10T06:32:48.721Z,52.76
2018-08-10T06:33:48.800Z,52.95
2018-08-10T06:34:48.712Z,52.95
2018-08-10T06:35:48.705Z,53.05
2018-08-10T06:36:48.700Z,52.95
2018-08-10T06:37:48.691Z,52.86
2018-08-10T06:38:48.687Z,53.15
2018-08-10T06:39:48.726Z,52.95
2018-08-10T06:40:48.681Z,52.95
2018-08-10T06:41:48.670Z,52.86
2018-08-10T06:42:48.664Z,53.05
2018-08-10T06:43:48.658Z,52.86
2018-08-10T06:44:48.720Z,52.95
2018-08-10T06:45:48.653Z,52.95
2018-08-10T06:46:48.642Z,52.28
2018-08-10T06:47:48.636Z,52.56
2018-08-10T06:48:48.633Z,52.47
2018-08-10T06:49:48.633Z,52.59
2018-08-10T06:50:48.620Z,52.47
2018-08-10T06:51:48.612Z,52.56
2018-08-10T06:52:48.602Z,52.66
2018-08-10T06:53:48.594Z,52.59
2018-08-10T06:54:48.596Z,52.37
2018-08-10T06:55:48.629Z,52.30
2018-08-10T06:56:48.616Z,52.78
2018-08-10T06:57:48.578Z,52.88
2018-08-10T06:58:48.579Z,52.40
2018-08-10T06:59:48.567Z,52.40
2018-08-10T07:00:48.594Z,52.30
2018-08-10T07:01:48.555Z,52.50
2018-08-10T07:02:48.549Z,52.40
2018-08-10T07:03:48.545Z,52.50
2018-08-10T07:04:48.536Z,52.30
2018-08-10T07:05:48.531Z,52.30
2018-08-10T07:06:48.528Z,52.78
2018-08-10T07:07:48.528Z,52.50
2018-08-10T07:08:48.516Z,52.69
2018-08-10T07:09:48.512Z,52.78
2018-08-10T07:10:48.505Z,52.59
2018-08-10T07:11:48.498Z,52.78
2018-08-10T07:12:48.497Z,52.30
2018-08-10T07:13:48.497Z,52.40
2018-08-10T07:14:48.482Z,52.59
2018-08-10T07:15:48.476Z,52.40
2018-08-10T07:16:48.474Z,52.42
2018-08-10T07:17:48.464Z,52.30
2018-08-10T07:18:48.459Z,52.30
2018-08-10T07:19:48.454Z,52.33
2018-08-10T07:20:48.446Z,52.30
2018-08-10T07:21:48.446Z,52.33
2018-08-10T07:22:48.437Z,52.42
2018-08-10T07:23:48.434Z,52.42
2018-08-10T07:24:48.425Z,52.62
2018-08-10T07:25:48.420Z,52.62
2018-08-10T07:26:48.417Z,52.13
2018-08-10T07:27:48.413Z,52.03
2018-08-10T07:28:48.402Z,52.52
2018-08-10T07:29:48.399Z,52.03
2018-08-10T07:30:48.400Z,52.13
2018-08-10T07:31:48.388Z,52.13
2018-08-10T07:32:48.380Z,51.93
2018-08-10T07:33:48.377Z,51.65
2018-08-10T07:34:48.373Z,51.84
2018-08-10T07:35:48.369Z,51.75
2018-08-10T07:36:48.363Z,51.84
2018-08-10T07:37:48.355Z,52.03
2018-08-10T07:38:48.350Z,51.93
2018-08-10T07:39:48.350Z,51.93
2018-08-10T07:40:48.339Z,52.23
2018-08-10T07:41:48.333Z,52.23
2018-08-10T07:42:48.330Z,51.75
2018-08-10T07:43:48.318Z,51.75
2018-08-10T07:44:48.322Z,51.93
2018-08-10T07:45:48.310Z,51.87
2018-08-10T07:46:48.306Z,51.97
2018-08-10T07:47:48.301Z,51.57
2018-08-10T07:48:48.305Z,51.48
2018-08-10T07:49:48.290Z,51.87
2018-08-10T07:50:48.286Z,51.97
2018-08-10T07:51:48.281Z,51.48
2018-08-10T07:52:48.275Z,51.67
2018-08-10T07:53:48.269Z,51.57
2018-08-10T07:54:48.265Z,51.28
2018-08-10T07:55:48.259Z,51.28
2018-08-10T07:56:48.253Z,51.18
2018-08-10T07:57:48.256Z,51.28
2018-08-10T07:58:48.245Z,50.89
2018-08-10T07:59:48.245Z,51.11
2018-08-10T08:00:48.226Z,51.21
2018-08-10T08:01:48.229Z,51.11
2018-08-10T08:02:48.230Z,50.82
2018-08-10T08:03:48.220Z,50.73
2018-08-10T08:04:48.212Z,50.82
2018-08-10T08:05:48.215Z,51.11
2018-08-10T08:06:48.205Z,50.63
2018-08-10T08:07:48.201Z,50.63
2018-08-10T08:08:48.192Z,50.82
2018-08-10T08:09:48.186Z,51.01
2018-08-10T08:10:48.183Z,50.92
2018-08-10T08:11:48.177Z,50.65
2018-08-10T08:12:48.173Z,50.14
2018-08-10T08:13:48.221Z,50.34
2018-08-10T08:14:48.164Z,50.34
2018-08-10T08:15:48.160Z,50.16
2018-08-10T08:16:48.152Z,50.26
2018-08-10T08:17:48.198Z,50.16
2018-08-10T08:18:48.158Z,50.07
2018-08-10T08:19:48.175Z,50.16
2018-08-10T08:20:48.157Z,50.16
2018-08-10T08:21:48.127Z,50.26
2018-08-10T08:22:48.122Z,50.36
2018-08-10T08:23:48.123Z,50.16
2018-08-10T08:24:48.113Z,50.07
2018-08-10T08:25:48.108Z,49.87
2018-08-10T08:26:48.103Z,50.07
2018-08-10T08:27:48.100Z,50.16
2018-08-10T08:28:48.096Z,50.26
2018-08-10T08:29:48.088Z,50.26
2018-08-10T08:30:48.087Z,50.46
2018-08-10T08:31:48.079Z,49.87
2018-08-10T08:32:48.074Z,49.87
2018-08-10T08:33:48.071Z,49.61
2018-08-10T08:34:48.096Z,49.80
2018-08-10T08:35:48.176Z,49.90
2018-08-10T08:36:48.069Z,49.71
2018-08-10T08:37:48.051Z,49.51
2018-08-10T08:38:48.045Z,49.32
2018-08-10T08:39:48.050Z,49.41
2018-08-10T08:40:48.102Z,49.41
2018-08-10T08:41:48.031Z,49.51
2018-08-10T08:42:48.027Z,49.61
2018-08-10T08:43:48.024Z,49.12
2018-08-10T08:44:48.019Z,49.12
2018-08-10T08:45:48.222Z,49.12
2018-08-10T08:46:48.010Z,49.12
2018-08-10T08:47:48.004Z,48.85
2018-08-10T08:48:47.997Z,48.95
2018-08-10T08:49:47.994Z,48.66
2018-08-10T08:50:47.990Z,48.66
2018-08-10T08:51:47.999Z,48.95
2018-08-10T08:52:47.980Z,48.75
2018-08-10T08:53:47.977Z,49.05
2018-08-10T08:54:47.974Z,48.95
2018-08-10T08:55:47.973Z,48.95
2018-08-10T08:56:47.961Z,48.66
2018-08-10T08:57:47.961Z,48.83
2018-08-10T08:58:47.953Z,48.73
2018-08-10T08:59:47.950Z,48.93
2018-08-10T09:00:47.943Z,48.83
2018-08-10T09:01:47.938Z,48.63
2018-08-10T09:02:47.934Z,48.73
2018-08-10T09:03:47.930Z,48.54
2018-08-10T09:04:47.927Z,48.95
2018-08-10T09:05:47.924Z,48.83
2018-08-10T09:06:47.915Z,48.93
2018-08-10T09:07:47.942Z,48.93
2018-08-10T09:08:47.905Z,48.63
2018-08-10T09:09:47.904Z,49.02
2018-08-10T09:10:47.896Z,48.85
2018-08-10T09:11:47.893Z,48.54
2018-08-10T09:12:47.887Z,48.93
2018-08-10T09:13:47.883Z,48.95
2018-08-10T09:14:47.887Z,48.63
2018-08-10T09:15:47.879Z,48.73
2018-08-10T09:16:47.869Z,48.83
2018-08-10T09:17:47.868Z,48.54
2018-08-10T09:18:47.862Z,48.63
2018-08-10T09:19:47.855Z,48.83
2018-08-10T09:20:47.854Z,48.63
2018-08-10T09:21:47.842Z,48.83
2018-08-10T09:22:47.840Z,49.12
2018-08-10T09:23:47.836Z,49.12
2018-08-10T09:24:47.839Z,49.22
2018-08-10T09:25:47.833Z,49.12
2018-08-10T09:26:47.867Z,49.12
2018-08-10T09:27:47.820Z,48.93
2018-08-10T09:28:47.812Z,48.83
2018-08-10T09:29:47.811Z,48.93
2018-08-10T09:30:47.811Z,49.02
2018-08-10T09:31:47.800Z,49.22
2018-08-10T09:32:47.795Z,49.02
2018-08-10T09:33:47.792Z,48.83
2018-08-10T09:34:47.786Z,48.83
2018-08-10T09:35:47.787Z,48.54
2018-08-10T09:36:47.795Z,48.93
2018-08-10T09:37:47.780Z,48.93
2018-08-10T09:38:47.778Z,48.83
2018-08-10T09:39:47.764Z,49.02
2018-08-10T09:40:47.760Z,48.93
2018-08-10T09:41:47.754Z,48.73
2018-08-10T09:42:47.749Z,48.95
2018-08-10T09:43:47.743Z,49.15
2018-08-10T09:44:47.739Z,48.27
2018-08-10T09:45:47.738Z,48.56
2018-08-10T09:46:47.732Z,48.66
2018-08-10T09:47:47.728Z,48.36
2018-08-10T09:48:47.722Z,48.07
2018-08-10T09:49:47.718Z,48.10
2018-08-10T09:50:47.716Z,48.10
2018-08-10T09:51:47.771Z,48.19
2018-08-10T09:52:47.706Z,48.19
2018-08-10T09:53:47.700Z,47.52
2018-08-10T09:54:47.695Z,47.71
2018-08-10T09:55:47.694Z,47.71
2018-08-10T09:56:47.691Z,47.71
2018-08-10T09:57:47.687Z,47.71
2018-08-10T09:58:47.682Z,47.71
2018-08-10T09:59:47.732Z,47.80
2018-08-10T10:00:47.669Z,47.61
2018-08-10T10:01:47.665Z,47.71
2018-08-10T10:02:47.657Z,47.80
2018-08-10T10:03:47.657Z,47.71
2018-08-10T10:04:47.650Z,47.52
2018-08-10T10:05:47.647Z,47.61
2018-08-10T10:06:47.645Z,47.71
2018-08-10T10:07:47.649Z,47.90
2018-08-10T10:08:47.636Z,47.71
2018-08-10T10:09:47.632Z,47.80
2018-08-10T10:10:47.626Z,47.71
2018-08-10T10:11:47.621Z,47.71
2018-08-10T10:12:47.616Z,47.90
2018-08-10T10:13:47.613Z,48.19
2018-08-10T10:14:47.609Z,47.80
2018-08-10T10:15:47.604Z,48.00
2018-08-10T10:16:47.599Z,48.19
2018-08-10T10:17:47.596Z,47.90
2018-08-10T10:18:47.593Z,47.71
2018-08-10T10:19:47.588Z,47.90
2018-08-10T10:20:47.581Z,47.80
2018-08-10T10:21:47.576Z,47.61
2018-08-10T10:22:47.575Z,47.13
2018-08-10T10:23:47.570Z,47.52
2018-08-10T10:24:47.568Z,47.42
2018-08-10T10:25:47.560Z,47.52
2018-08-10T10:26:47.555Z,47.22
2018-08-10T10:27:47.552Z,47.80
2018-08-10T10:28:47.550Z,47.90
2018-08-10T10:29:47.557Z,47.90
2018-08-10T10:30:47.544Z,47.32
2018-08-10T10:31:47.541Z,47.32
2018-08-10T10:32:47.662Z,47.42
2018-08-10T10:33:47.527Z,47.13
2018-08-10T10:34:47.522Z,46.93
2018-08-10T10:35:47.520Z,46.83
2018-08-10T10:36:47.514Z,47.52
2018-08-10T10:37:47.509Z,47.52
2018-08-10T10:38:47.508Z,47.13
2018-08-10T10:39:47.507Z,47.42
2018-08-10T10:40:47.499Z,47.80
2018-08-10T10:41:47.501Z,47.71
2018-08-10T10:42:47.525Z,47.61
2018-08-10T10:43:47.484Z,47.52
2018-08-10T10:44:47.483Z,47.61
2018-08-10T10:45:47.477Z,48.17
2018-08-10T10:46:47.473Z,48.17
2018-08-10T10:47:47.484Z,47.98
2018-08-10T10:48:47.462Z,47.98
2018-08-10T10:49:47.460Z,47.98
2018-08-10T10:50:47.475Z,48.17
2018-08-10T10:51:47.453Z,48.17
2018-08-10T10:52:47.444Z,47.88
2018-08-10T10:53:47.444Z,48.17
2018-08-10T10:54:47.440Z,47.98
2018-08-10T10:55:47.432Z,48.29
2018-08-10T10:56:47.525Z,47.80
2018-08-10T10:57:47.431Z,47.71
2018-08-10T10:58:47.419Z,47.80
2018-08-10T10:59:47.416Z,47.71
2018-08-10T11:00:47.409Z,47.32
2018-08-10T11:01:47.409Z,47.32
2018-08-10T11:02:47.405Z,47.52
2018-08-10T11:03:47.406Z,47.52
2018-08-10T11:04:47.391Z,47.22
2018-08-10T11:05:47.391Z,47.61
2018-08-10T11:06:47.385Z,47.80
2018-08-10T11:07:47.380Z,47.71
2018-08-10T11:08:47.373Z,47.71
2018-08-10T11:09:47.369Z,47.71
2018-08-10T11:10:47.370Z,47.52
2018-08-10T11:11:47.367Z,47.71
2018-08-10T11:12:47.358Z,47.90
2018-08-10T11:13:47.353Z,47.61
2018-08-10T11:14:47.352Z,47.80
2018-08-10T11:15:47.345Z,47.42
2018-08-10T11:16:47.342Z,47.52
2018-08-10T11:17:47.336Z,47.42
2018-08-10T11:18:47.334Z,47.42
2018-08-10T11:19:47.332Z,47.42
2018-08-10T11:20:47.325Z,47.32
2018-08-10T11:21:47.319Z,47.05
2018-08-10T11:22:47.319Z,47.05
2018-08-10T11:23:47.314Z,46.76
2018-08-10T11:24:47.307Z,47.25
2018-08-10T11:25:47.485Z,46.86
2018-08-10T11:26:47.302Z,47.44
2018-08-10T11:27:47.295Z,46.83
2018-08-10T11:28:47.290Z,47.42
2018-08-10T11:29:47.289Z,47.13
2018-08-10T11:30:47.282Z,47.13
2018-08-10T11:31:47.278Z,47.03
2018-08-10T11:32:47.275Z,47.42
2018-08-10T11:33:47.274Z,47.03
2018-08-10T11:34:47.271Z,47.22
2018-08-10T11:35:47.263Z,47.42
2018-08-10T11:36:47.262Z,47.03
2018-08-10T11:37:47.257Z,47.13
2018-08-10T11:38:47.250Z,47.42
2018-08-10T11:39:47.247Z,47.32
2018-08-10T11:40:47.242Z,47.42
2018-08-10T11:41:47.241Z,47.52
2018-08-10T11:42:47.235Z,47.42
2018-08-10T11:43:47.229Z,47.42
2018-08-10T11:44:47.288Z,47.22
2018-08-10T11:45:47.226Z,47.71
2018-08-10T11:46:47.218Z,48.00
2018-08-10T11:47:47.215Z,47.71
2018-08-10T11:48:47.205Z,47.52
2018-08-10T11:49:47.204Z,47.90
2018-08-10T11:50:47.203Z,47.71
2018-08-10T11:51:47.196Z,47.80
2018-08-10T11:52:47.194Z,47.80
2018-08-10T11:53:47.187Z,47.22
2018-08-10T11:54:47.180Z,47.32
2018-08-10T11:55:47.178Z,47.61
2018-08-10T11:56:47.172Z,47.71
2018-08-10T11:57:47.171Z,47.71
2018-08-10T11:58:47.166Z,47.61
2018-08-10T11:59:47.161Z,47.52
2018-08-10T12:00:47.159Z,47.71
2018-08-10T12:01:47.174Z,47.80
2018-08-10T12:02:47.157Z,47.22
2018-08-10T12:03:47.155Z,47.13
2018-08-10T12:04:47.143Z,47.32
2018-08-10T12:05:47.190Z,47.22
2018-08-10T12:06:47.130Z,47.52
2018-08-10T12:07:47.137Z,47.42
2018-08-10T12:08:47.125Z,47.52
2018-08-10T12:09:47.126Z,47.61
2018-08-10T12:10:47.117Z,47.52
2018-08-10T12:11:47.114Z,47.13
2018-08-10T12:12:47.117Z,47.42
2018-08-10T12:13:47.103Z,47.52
2018-08-10T12:14:47.097Z,47.32
2018-08-10T12:15:47.096Z,47.52
2018-08-10T12:16:47.103Z,47.52
2018-08-10T12:17:47.129Z,47.52
2018-08-10T12:18:47.085Z,47.52
2018-08-10T12:19:47.100Z,47.52
2018-08-10T12:20:47.074Z,47.52
2018-08-10T12:21:47.071Z,47.22
2018-08-10T12:22:47.068Z,47.80
2018-08-10T12:23:47.063Z,47.80
2018-08-10T12:24:47.126Z,47.71
2018-08-10T12:25:47.056Z,47.90
2018-08-10T12:26:47.052Z,47.42
2018-08-10T12:27:47.047Z,47.71
2018-08-10T12:28:47.040Z,47.61
2018-08-10T12:29:47.042Z,47.22
2018-08-10T12:30:47.031Z,47.71
2018-08-10T12:31:47.030Z,47.61
2018-08-10T12:32:47.031Z,47.80
2018-08-10T12:33:47.023Z,47.61
2018-08-10T12:34:47.017Z,47.80
2018-08-10T12:35:47.013Z,47.80
2018-08-10T12:36:47.007Z,47.61
2018-08-10T12:37:47.002Z,47.61
2018-08-10T12:38:46.998Z,47.80
2018-08-10T12:39:46.998Z,47.71
2018-08-10T12:40:46.993Z,47.71
2018-08-10T12:41:46.985Z,47.71
2018-08-10T12:42:46.984Z,47.80
2018-08-10T12:43:46.978Z,47.90
2018-08-10T12:44:46.973Z,47.52
2018-08-10T12:45:46.968Z,47.80
2018-08-10T12:46:46.968Z,47.90
2018-08-10T12:47:47.127Z,48.19
2018-08-10T12:48:46.960Z,48.29
2018-08-10T12:49:46.952Z,47.90
2018-08-10T12:50:47.036Z,48.00
2018-08-10T12:51:46.951Z,48.10
2018-08-10T12:52:46.945Z,48.00